sensor_id;sensor_type;location;lat;lon;timestamp;temperature;humidity
48589;DHT22;34369;51.174;6.738;2023-09-19T00:02:17;15.40;67.30
48589;DHT22;34369;51.174;6.738;2023-09-19T00:04:49;15.30;67.20
48589;DHT22;34369;51.174;6.738;2023-09-19T00:07:22;15.30;67.20
48589;DHT22;34369;51.174;6.738;2023-09-19T00:09:55;15.30;67.40
48589;DHT22;34369;51.174;6.738;2023-09-19T00:12:29;15.30;67.50
48589;DHT22;34369;51.174;6.738;2023-09-19T00:15:01;15.30;67.50
48589;DHT22;34369;51.174;6.738;2023-09-19T00:17:37;15.30;67.50
48589;DHT22;34369;51.174;6.738;2023-09-19T00:20:11;15.20;67.50
48589;DHT22;34369;51.174;6.738;2023-09-19T00:22:45;15.20;67.60
48589;DHT22;34369;51.174;6.738;2023-09-19T00:25:17;15.10;67.60
48589;DHT22;34369;51.174;6.738;2023-09-19T00:27:52;15.20;67.50
48589;DHT22;34369;51.174;6.738;2023-09-19T00:30:24;15.10;67.50
48589;DHT22;34369;51.174;6.738;2023-09-19T00:32:56;15.10;67.60
48589;DHT22;34369;51.174;6.738;2023-09-19T00:35:31;15.10;67.70
48589;DHT22;34369;51.174;6.738;2023-09-19T00:38:09;15.10;67.80
48589;DHT22;34369;51.174;6.738;2023-09-19T00:40:44;15.10;67.90
48589;DHT22;34369;51.174;6.738;2023-09-19T00:43:17;15.10;67.50
48589;DHT22;34369;51.174;6.738;2023-09-19T00:45:51;15.00;67.50
48589;DHT22;34369;51.174;6.738;2023-09-19T00:48:26;15.00;67.50
48589;DHT22;34369;51.174;6.738;2023-09-19T00:51:02;15.00;67.50
48589;DHT22;34369;51.174;6.738;2023-09-19T00:53:35;15.00;67.50
48589;DHT22;34369;51.174;6.738;2023-09-19T00:56:07;15.00;67.50
48589;DHT22;34369;51.174;6.738;2023-09-19T00:58:41;15.00;67.60
48589;DHT22;34369;51.174;6.738;2023-09-19T01:01:14;15.00;67.50
48589;DHT22;34369;51.174;6.738;2023-09-19T01:03:47;15.00;67.60
48589;DHT22;34369;51.174;6.738;2023-09-19T01:06:21;15.00;67.50
48589;DHT22;34369;51.174;6.738;2023-09-19T01:08:56;15.00;67.50
48589;DHT22;34369;51.174;6.738;2023-09-19T01:11:32;15.00;67.50
48589;DHT22;34369;51.174;6.738;2023-09-19T01:14:20;15.00;67.50
48589;DHT22;34369;51.174;6.738;2023-09-19T01:17:03;15.00;67.60
48589;DHT22;34369;51.174;6.738;2023-09-19T01:20:03;15.00;67.50
48589;DHT22;34369;51.174;6.738;2023-09-19T01:22:53;15.00;67.70
48589;DHT22;34369;51.174;6.738;2023-09-19T01:26:07;15.00;67.30
48589;DHT22;34369;51.174;6.738;2023-09-19T01:28:51;15.00;67.40
48589;DHT22;34369;51.174;6.738;2023-09-19T01:31:33;15.00;67.20
48589;DHT22;34369;51.174;6.738;2023-09-19T01:34:07;15.00;67.50
48589;DHT22;34369;51.174;6.738;2023-09-19T01:36:40;15.00;67.30
48589;DHT22;34369;51.174;6.738;2023-09-19T01:39:13;15.00;67.30
48589;DHT22;34369;51.174;6.738;2023-09-19T01:41:54;15.00;67.30
48589;DHT22;34369;51.174;6.738;2023-09-19T01:44:40;15.00;67.40
48589;DHT22;34369;51.174;6.738;2023-09-19T01:47:27;15.00;67.30
48589;DHT22;34369;51.174;6.738;2023-09-19T01:50:16;15.00;67.60
48589;DHT22;34369;51.174;6.738;2023-09-19T01:52:56;15.00;67.50
48589;DHT22;34369;51.174;6.738;2023-09-19T01:55:37;15.00;67.40
48589;DHT22;34369;51.174;6.738;2023-09-19T01:58:17;15.00;67.40
48589;DHT22;34369;51.174;6.738;2023-09-19T02:00:53;15.00;67.20
48589;DHT22;34369;51.174;6.738;2023-09-19T02:03:29;15.00;67.30
48589;DHT22;34369;51.174;6.738;2023-09-19T02:06:02;15.00;67.10
48589;DHT22;34369;51.174;6.738;2023-09-19T02:08:41;15.00;67.00
48589;DHT22;34369;51.174;6.738;2023-09-19T02:11:14;15.00;67.00
48589;DHT22;34369;51.174;6.738;2023-09-19T02:13:46;15.00;67.00
48589;DHT22;34369;51.174;6.738;2023-09-19T02:16:18;15.00;66.90
48589;DHT22;34369;51.174;6.738;2023-09-19T02:18:53;15.00;66.90
48589;DHT22;34369;51.174;6.738;2023-09-19T02:21:25;15.00;66.80
48589;DHT22;34369;51.174;6.738;2023-09-19T02:24:00;15.00;66.70
48589;DHT22;34369;51.174;6.738;2023-09-19T02:26:33;15.00;66.60
48589;DHT22;34369;51.174;6.738;2023-09-19T02:29:07;15.00;66.60
48589;DHT22;34369;51.174;6.738;2023-09-19T02:31:43;15.00;66.50
48589;DHT22;34369;51.174;6.738;2023-09-19T02:34:18;15.00;66.50
48589;DHT22;34369;51.174;6.738;2023-09-19T02:36:50;15.00;66.20
48589;DHT22;34369;51.174;6.738;2023-09-19T02:39:24;15.00;66.20
48589;DHT22;34369;51.174;6.738;2023-09-19T02:41:56;14.90;66.20
48589;DHT22;34369;51.174;6.738;2023-09-19T02:44:28;14.90;66.20
48589;DHT22;34369;51.174;6.738;2023-09-19T02:47:01;14.90;66.00
48589;DHT22;34369;51.174;6.738;2023-09-19T02:49:35;14.90;66.00
48589;DHT22;34369;51.174;6.738;2023-09-19T02:52:09;14.90;66.00
48589;DHT22;34369;51.174;6.738;2023-09-19T02:54:44;14.80;65.90
48589;DHT22;34369;51.174;6.738;2023-09-19T02:57:18;14.80;65.70
48589;DHT22;34369;51.174;6.738;2023-09-19T02:59:51;14.80;65.70
48589;DHT22;34369;51.174;6.738;2023-09-19T03:02:24;14.70;65.80
48589;DHT22;34369;51.174;6.738;2023-09-19T03:05:00;14.70;65.70
48589;DHT22;34369;51.174;6.738;2023-09-19T03:07:34;14.70;65.50
48589;DHT22;34369;51.174;6.738;2023-09-19T03:10:08;14.70;65.40
48589;DHT22;34369;51.174;6.738;2023-09-19T03:12:41;14.70;65.30
48589;DHT22;34369;51.174;6.738;2023-09-19T03:15:14;14.60;65.20
48589;DHT22;34369;51.174;6.738;2023-09-19T03:17:48;14.60;65.20
48589;DHT22;34369;51.174;6.738;2023-09-19T03:20:23;14.60;65.10
48589;DHT22;34369;51.174;6.738;2023-09-19T03:22:58;14.60;65.30
48589;DHT22;34369;51.174;6.738;2023-09-19T03:25:30;14.50;65.30
48589;DHT22;34369;51.174;6.738;2023-09-19T03:28:03;14.50;65.10
48589;DHT22;34369;51.174;6.738;2023-09-19T03:30:37;14.50;65.20
48589;DHT22;34369;51.174;6.738;2023-09-19T03:33:09;14.50;65.10
48589;DHT22;34369;51.174;6.738;2023-09-19T03:35:52;14.50;65.20
48589;DHT22;34369;51.174;6.738;2023-09-19T03:38:24;14.50;65.40
48589;DHT22;34369;51.174;6.738;2023-09-19T03:40:56;14.50;65.20
48589;DHT22;34369;51.174;6.738;2023-09-19T03:43:28;14.40;65.10
48589;DHT22;34369;51.174;6.738;2023-09-19T03:46:01;14.40;65.00
48589;DHT22;34369;51.174;6.738;2023-09-19T03:48:34;14.40;65.00
48589;DHT22;34369;51.174;6.738;2023-09-19T03:51:09;14.40;65.00
48589;DHT22;34369;51.174;6.738;2023-09-19T03:53:43;14.40;65.00
48589;DHT22;34369;51.174;6.738;2023-09-19T03:56:15;14.40;65.00
48589;DHT22;34369;51.174;6.738;2023-09-19T03:58:49;14.30;65.00
48589;DHT22;34369;51.174;6.738;2023-09-19T04:01:21;14.30;65.10
48589;DHT22;34369;51.174;6.738;2023-09-19T04:03:54;14.30;65.30
48589;DHT22;34369;51.174;6.738;2023-09-19T04:06:29;14.30;65.20
48589;DHT22;34369;51.174;6.738;2023-09-19T04:09:01;14.30;65.30
48589;DHT22;34369;51.174;6.738;2023-09-19T04:11:34;14.30;65.20
48589;DHT22;34369;51.174;6.738;2023-09-19T04:14:06;14.30;65.20
48589;DHT22;34369;51.174;6.738;2023-09-19T04:16:39;14.30;65.40
48589;DHT22;34369;51.174;6.738;2023-09-19T04:19:12;14.30;65.20
48589;DHT22;34369;51.174;6.738;2023-09-19T04:21:46;14.30;65.30
48589;DHT22;34369;51.174;6.738;2023-09-19T04:24:19;14.30;65.40
48589;DHT22;34369;51.174;6.738;2023-09-19T04:26:51;14.30;65.40
48589;DHT22;34369;51.174;6.738;2023-09-19T04:29:23;14.30;65.30
48589;DHT22;34369;51.174;6.738;2023-09-19T04:31:58;14.20;65.40
48589;DHT22;34369;51.174;6.738;2023-09-19T04:34:30;14.20;65.40
48589;DHT22;34369;51.174;6.738;2023-09-19T04:37:05;14.20;65.20
48589;DHT22;34369;51.174;6.738;2023-09-19T04:39:37;14.20;65.30
48589;DHT22;34369;51.174;6.738;2023-09-19T04:42:12;14.20;65.30
48589;DHT22;34369;51.174;6.738;2023-09-19T04:44:45;14.20;65.30
48589;DHT22;34369;51.174;6.738;2023-09-19T04:47:19;14.20;65.30
48589;DHT22;34369;51.174;6.738;2023-09-19T04:49:52;14.20;65.30
48589;DHT22;34369;51.174;6.738;2023-09-19T04:52:26;14.20;65.30
48589;DHT22;34369;51.174;6.738;2023-09-19T04:54:59;14.20;65.30
48589;DHT22;34369;51.174;6.738;2023-09-19T04:57:31;14.20;65.30
48589;DHT22;34369;51.174;6.738;2023-09-19T05:00:11;14.20;65.30
48589;DHT22;34369;51.174;6.738;2023-09-19T05:02:45;14.20;65.30
48589;DHT22;34369;51.174;6.738;2023-09-19T05:05:18;14.20;65.10
48589;DHT22;34369;51.174;6.738;2023-09-19T05:07:52;14.20;65.20
48589;DHT22;34369;51.174;6.738;2023-09-19T05:10:26;14.20;65.20
48589;DHT22;34369;51.174;6.738;2023-09-19T05:12:58;14.20;65.00
48589;DHT22;34369;51.174;6.738;2023-09-19T05:15:31;14.20;65.00
48589;DHT22;34369;51.174;6.738;2023-09-19T05:18:04;14.20;64.80
48589;DHT22;34369;51.174;6.738;2023-09-19T05:20:37;14.20;64.80
48589;DHT22;34369;51.174;6.738;2023-09-19T05:23:11;14.20;64.70
48589;DHT22;34369;51.174;6.738;2023-09-19T05:25:43;14.20;64.70
48589;DHT22;34369;51.174;6.738;2023-09-19T05:28:16;14.20;64.90
48589;DHT22;34369;51.174;6.738;2023-09-19T05:30:49;14.20;64.60
48589;DHT22;34369;51.174;6.738;2023-09-19T05:33:21;14.20;64.40
48589;DHT22;34369;51.174;6.738;2023-09-19T05:35:53;14.20;64.50
48589;DHT22;34369;51.174;6.738;2023-09-19T05:38:28;14.30;64.30
48589;DHT22;34369;51.174;6.738;2023-09-19T05:41:00;14.30;64.30
48589;DHT22;34369;51.174;6.738;2023-09-19T05:43:32;14.30;64.30
48589;DHT22;34369;51.174;6.738;2023-09-19T05:46:05;14.30;64.30
48589;DHT22;34369;51.174;6.738;2023-09-19T05:48:38;14.40;64.20
48589;DHT22;34369;51.174;6.738;2023-09-19T05:51:12;14.40;64.20
48589;DHT22;34369;51.174;6.738;2023-09-19T05:53:45;14.40;64.20
48589;DHT22;34369;51.174;6.738;2023-09-19T05:58:44;14.40;64.40
48589;DHT22;34369;51.174;6.738;2023-09-19T06:01:17;14.50;64.10
48589;DHT22;34369;51.174;6.738;2023-09-19T06:03:49;14.50;64.30
48589;DHT22;34369;51.174;6.738;2023-09-19T06:06:23;14.50;64.10
48589;DHT22;34369;51.174;6.738;2023-09-19T06:08:55;14.50;64.40
48589;DHT22;34369;51.174;6.738;2023-09-19T06:11:28;14.50;64.50
48589;DHT22;34369;51.174;6.738;2023-09-19T06:14:04;14.50;64.40
48589;DHT22;34369;51.174;6.738;2023-09-19T06:16:37;14.60;64.40
48589;DHT22;34369;51.174;6.738;2023-09-19T06:19:12;14.70;64.40
48589;DHT22;34369;51.174;6.738;2023-09-19T06:21:44;14.70;64.30
48589;DHT22;34369;51.174;6.738;2023-09-19T06:24:17;14.70;64.30
48589;DHT22;34369;51.174;6.738;2023-09-19T06:26:50;14.70;64.40
48589;DHT22;34369;51.174;6.738;2023-09-19T06:29:26;14.70;64.20
48589;DHT22;34369;51.174;6.738;2023-09-19T06:31:58;14.70;64.30
48589;DHT22;34369;51.174;6.738;2023-09-19T06:34:31;14.80;64.50
48589;DHT22;34369;51.174;6.738;2023-09-19T06:37:04;14.80;64.40
48589;DHT22;34369;51.174;6.738;2023-09-19T06:39:37;14.90;64.40
48589;DHT22;34369;51.174;6.738;2023-09-19T06:42:10;14.90;64.40
48589;DHT22;34369;51.174;6.738;2023-09-19T06:44:45;14.90;64.30
48589;DHT22;34369;51.174;6.738;2023-09-19T06:47:20;14.90;64.30
48589;DHT22;34369;51.174;6.738;2023-09-19T06:49:52;15.00;64.30
48589;DHT22;34369;51.174;6.738;2023-09-19T06:52:24;15.00;64.30
48589;DHT22;34369;51.174;6.738;2023-09-19T06:54:58;15.00;64.40
48589;DHT22;34369;51.174;6.738;2023-09-19T06:57:30;15.00;64.40
48589;DHT22;34369;51.174;6.738;2023-09-19T07:00:05;15.00;64.40
48589;DHT22;34369;51.174;6.738;2023-09-19T07:02:54;15.10;64.40
48589;DHT22;34369;51.174;6.738;2023-09-19T07:05:27;15.10;64.40
48589;DHT22;34369;51.174;6.738;2023-09-19T07:08:00;15.10;64.50
48589;DHT22;34369;51.174;6.738;2023-09-19T07:10:32;15.10;64.50
48589;DHT22;34369;51.174;6.738;2023-09-19T07:13:06;15.20;64.30
48589;DHT22;34369;51.174;6.738;2023-09-19T07:15:43;15.30;64.40
48589;DHT22;34369;51.174;6.738;2023-09-19T07:18:18;15.30;64.30
48589;DHT22;34369;51.174;6.738;2023-09-19T07:20:50;15.30;64.30
48589;DHT22;34369;51.174;6.738;2023-09-19T07:23:23;15.30;64.40
48589;DHT22;34369;51.174;6.738;2023-09-19T07:25:57;15.40;64.40
48589;DHT22;34369;51.174;6.738;2023-09-19T07:28:30;15.40;64.30
48589;DHT22;34369;51.174;6.738;2023-09-19T07:31:05;15.50;64.40
48589;DHT22;34369;51.174;6.738;2023-09-19T07:33:38;15.50;64.30
48589;DHT22;34369;51.174;6.738;2023-09-19T07:36:11;15.60;64.30
48589;DHT22;34369;51.174;6.738;2023-09-19T07:38:43;15.60;64.10
48589;DHT22;34369;51.174;6.738;2023-09-19T07:41:16;15.70;64.00
48589;DHT22;34369;51.174;6.738;2023-09-19T07:43:48;15.70;63.80
48589;DHT22;34369;51.174;6.738;2023-09-19T07:46:22;15.80;63.80
48589;DHT22;34369;51.174;6.738;2023-09-19T07:48:55;15.80;63.70
48589;DHT22;34369;51.174;6.738;2023-09-19T07:51:27;15.90;63.50
48589;DHT22;34369;51.174;6.738;2023-09-19T07:54:04;15.90;63.20
48589;DHT22;34369;51.174;6.738;2023-09-19T07:56:38;16.00;63.10
48589;DHT22;34369;51.174;6.738;2023-09-19T07:59:11;16.00;62.80
48589;DHT22;34369;51.174;6.738;2023-09-19T08:01:48;16.00;62.80
48589;DHT22;34369;51.174;6.738;2023-09-19T08:04:20;16.10;62.70
48589;DHT22;34369;51.174;6.738;2023-09-19T08:06:53;16.10;62.70
48589;DHT22;34369;51.174;6.738;2023-09-19T08:09:26;16.10;62.60
48589;DHT22;34369;51.174;6.738;2023-09-19T08:12:03;16.20;62.50
48589;DHT22;34369;51.174;6.738;2023-09-19T08:14:37;16.20;62.50
48589;DHT22;34369;51.174;6.738;2023-09-19T08:17:13;16.30;62.50
48589;DHT22;34369;51.174;6.738;2023-09-19T08:19:45;16.30;62.50
48589;DHT22;34369;51.174;6.738;2023-09-19T08:22:20;16.40;62.50
48589;DHT22;34369;51.174;6.738;2023-09-19T08:24:54;16.40;62.40
48589;DHT22;34369;51.174;6.738;2023-09-19T08:27:26;16.50;62.40
48589;DHT22;34369;51.174;6.738;2023-09-19T08:29:59;16.50;62.10
48589;DHT22;34369;51.174;6.738;2023-09-19T08:32:33;16.60;62.20
48589;DHT22;34369;51.174;6.738;2023-09-19T08:35:06;16.60;62.30
48589;DHT22;34369;51.174;6.738;2023-09-19T08:37:39;16.70;62.20
48589;DHT22;34369;51.174;6.738;2023-09-19T08:40:12;16.80;62.10
48589;DHT22;34369;51.174;6.738;2023-09-19T08:42:48;16.90;61.90
48589;DHT22;34369;51.174;6.738;2023-09-19T08:45:22;16.90;61.30
48589;DHT22;34369;51.174;6.738;2023-09-19T08:48:04;17.00;61.30
48589;DHT22;34369;51.174;6.738;2023-09-19T08:50:53;17.00;61.30
48589;DHT22;34369;51.174;6.738;2023-09-19T08:53:34;17.10;60.50
48589;DHT22;34369;51.174;6.738;2023-09-19T08:56:11;17.20;60.70
48589;DHT22;34369;51.174;6.738;2023-09-19T08:58:49;17.20;60.70
48589;DHT22;34369;51.174;6.738;2023-09-19T09:01:23;17.40;60.70
48589;DHT22;34369;51.174;6.738;2023-09-19T09:03:58;17.40;60.80
48589;DHT22;34369;51.174;6.738;2023-09-19T09:06:31;17.50;60.70
48589;DHT22;34369;51.174;6.738;2023-09-19T09:09:11;17.70;60.80
48589;DHT22;34369;51.174;6.738;2023-09-19T09:11:51;17.80;60.30
48589;DHT22;34369;51.174;6.738;2023-09-19T09:14:30;18.00;59.80
48589;DHT22;34369;51.174;6.738;2023-09-19T09:17:03;18.10;59.40
48589;DHT22;34369;51.174;6.738;2023-09-19T09:19:36;18.20;59.00
48589;DHT22;34369;51.174;6.738;2023-09-19T09:22:29;18.40;59.00
48589;DHT22;34369;51.174;6.738;2023-09-19T09:26:04;18.50;58.90
48589;DHT22;34369;51.174;6.738;2023-09-19T09:29:16;18.60;56.90
48589;DHT22;34369;51.174;6.738;2023-09-19T09:32:47;18.60;57.40
48589;DHT22;34369;51.174;6.738;2023-09-19T09:36:25;18.80;58.10
48589;DHT22;34369;51.174;6.738;2023-09-19T09:39:59;18.90;57.60
48589;DHT22;34369;51.174;6.738;2023-09-19T09:43:33;19.00;56.40
48589;DHT22;34369;51.174;6.738;2023-09-19T09:46:53;19.10;56.60
48589;DHT22;34369;51.174;6.738;2023-09-19T09:54:23;19.10;56.80
48589;DHT22;34369;51.174;6.738;2023-09-19T09:57:31;19.20;54.80
48589;DHT22;34369;51.174;6.738;2023-09-19T10:00:34;19.10;55.50
48589;DHT22;34369;51.174;6.738;2023-09-19T10:03:50;19.00;55.10
48589;DHT22;34369;51.174;6.738;2023-09-19T10:06:53;19.00;55.30
48589;DHT22;34369;51.174;6.738;2023-09-19T10:09:48;18.90;55.20
48589;DHT22;34369;51.174;6.738;2023-09-19T10:12:45;18.90;55.50
48589;DHT22;34369;51.174;6.738;2023-09-19T10:20:39;18.90;55.00
48589;DHT22;34369;51.174;6.738;2023-09-19T10:27:33;18.80;54.90
48589;DHT22;34369;51.174;6.738;2023-09-19T10:31:26;18.90;55.50
48589;DHT22;34369;51.174;6.738;2023-09-19T10:34:59;18.90;55.60
48589;DHT22;34369;51.174;6.738;2023-09-19T10:38:33;18.90;55.00
48589;DHT22;34369;51.174;6.738;2023-09-19T10:41:39;18.90;55.30
48589;DHT22;34369;51.174;6.738;2023-09-19T10:44:48;18.90;55.00
48589;DHT22;34369;51.174;6.738;2023-09-19T10:48:02;19.00;54.30
48589;DHT22;34369;51.174;6.738;2023-09-19T10:51:46;19.00;55.30
48589;DHT22;34369;51.174;6.738;2023-09-19T10:55:20;19.00;54.70
48589;DHT22;34369;51.174;6.738;2023-09-19T10:58:55;19.00;54.20
48589;DHT22;34369;51.174;6.738;2023-09-19T11:02:28;19.00;53.80
48589;DHT22;34369;51.174;6.738;2023-09-19T11:20:49;19.60;53.90
48589;DHT22;34369;51.174;6.738;2023-09-19T11:31:57;19.90;52.80
48589;DHT22;34369;51.174;6.738;2023-09-19T11:39:04;20.10;52.90
48589;DHT22;34369;51.174;6.738;2023-09-19T11:42:02;20.30;53.00
48589;DHT22;34369;51.174;6.738;2023-09-19T11:49:08;20.80;51.30
48589;DHT22;34369;51.174;6.738;2023-09-19T11:52:47;21.00;51.00
48589;DHT22;34369;51.174;6.738;2023-09-19T11:56:29;21.10;50.40
48589;DHT22;34369;51.174;6.738;2023-09-19T11:59:54;21.40;49.00
48589;DHT22;34369;51.174;6.738;2023-09-19T12:02:39;21.50;49.60
48589;DHT22;34369;51.174;6.738;2023-09-19T12:05:31;21.50;48.50
48589;DHT22;34369;51.174;6.738;2023-09-19T12:08:08;21.50;48.50
48589;DHT22;34369;51.174;6.738;2023-09-19T12:10:48;21.50;48.90
48589;DHT22;34369;51.174;6.738;2023-09-19T12:13:33;21.40;48.20
48589;DHT22;34369;51.174;6.738;2023-09-19T12:16:16;21.40;47.90
48589;DHT22;34369;51.174;6.738;2023-09-19T12:18:55;21.40;48.40
48589;DHT22;34369;51.174;6.738;2023-09-19T12:21:57;21.40;48.40
48589;DHT22;34369;51.174;6.738;2023-09-19T12:24:36;21.40;48.40
48589;DHT22;34369;51.174;6.738;2023-09-19T12:27:16;21.40;49.00
48589;DHT22;34369;51.174;6.738;2023-09-19T12:30:08;21.50;48.60
48589;DHT22;34369;51.174;6.738;2023-09-19T12:32:46;21.50;48.00
48589;DHT22;34369;51.174;6.738;2023-09-19T12:35:28;21.70;49.00
48589;DHT22;34369;51.174;6.738;2023-09-19T12:38:06;21.70;48.50
48589;DHT22;34369;51.174;6.738;2023-09-19T12:40:45;21.90;48.70
48589;DHT22;34369;51.174;6.738;2023-09-19T12:43:24;21.90;48.70
48589;DHT22;34369;51.174;6.738;2023-09-19T12:46:06;22.00;48.30
48589;DHT22;34369;51.174;6.738;2023-09-19T12:48:45;22.10;47.70
48589;DHT22;34369;51.174;6.738;2023-09-19T12:51:37;22.10;47.10
48589;DHT22;34369;51.174;6.738;2023-09-19T12:54:46;22.10;46.50
48589;DHT22;34369;51.174;6.738;2023-09-19T12:57:26;22.10;46.20
48589;DHT22;34369;51.174;6.738;2023-09-19T13:00:11;22.10;46.70
48589;DHT22;34369;51.174;6.738;2023-09-19T13:03:26;22.10;46.60
48589;DHT22;34369;51.174;6.738;2023-09-19T13:06:11;22.00;46.90
48589;DHT22;34369;51.174;6.738;2023-09-19T13:09:10;22.10;46.60
48589;DHT22;34369;51.174;6.738;2023-09-19T13:12:02;22.10;46.60
48589;DHT22;34369;51.174;6.738;2023-09-19T13:15:08;22.10;47.10
48589;DHT22;34369;51.174;6.738;2023-09-19T13:17:55;22.20;47.00
48589;DHT22;34369;51.174;6.738;2023-09-19T13:21:10;22.20;46.60
48589;DHT22;34369;51.174;6.738;2023-09-19T13:23:55;22.30;46.70
48589;DHT22;34369;51.174;6.738;2023-09-19T13:26:40;22.40;46.20
48589;DHT22;34369;51.174;6.738;2023-09-19T13:29:16;22.50;47.00
48589;DHT22;34369;51.174;6.738;2023-09-19T13:31:58;22.60;47.10
48589;DHT22;34369;51.174;6.738;2023-09-19T13:34:44;22.80;46.80
48589;DHT22;34369;51.174;6.738;2023-09-19T13:37:34;23.00;46.10
48589;DHT22;34369;51.174;6.738;2023-09-19T13:40:36;23.20;45.50
48589;DHT22;34369;51.174;6.738;2023-09-19T13:43:33;23.30;45.80
48589;DHT22;34369;51.174;6.738;2023-09-19T13:46:39;23.50;44.60
48589;DHT22;34369;51.174;6.738;2023-09-19T13:49:44;23.50;45.10
48589;DHT22;34369;51.174;6.738;2023-09-19T13:53:02;23.50;44.40
48589;DHT22;34369;51.174;6.738;2023-09-19T13:55:43;23.30;44.50
48589;DHT22;34369;51.174;6.738;2023-09-19T13:58:24;23.10;44.90
48589;DHT22;34369;51.174;6.738;2023-09-19T14:01:57;22.90;44.80
48589;DHT22;34369;51.174;6.738;2023-09-19T14:04:58;22.60;44.60
48589;DHT22;34369;51.174;6.738;2023-09-19T14:07:48;22.50;44.80
48589;DHT22;34369;51.174;6.738;2023-09-19T14:10:33;22.20;44.70
48589;DHT22;34369;51.174;6.738;2023-09-19T14:13:26;22.00;44.90
48589;DHT22;34369;51.174;6.738;2023-09-19T14:16:28;21.80;45.30
48589;DHT22;34369;51.174;6.738;2023-09-19T14:19:14;21.70;45.90
48589;DHT22;34369;51.174;6.738;2023-09-19T14:21:56;21.50;46.30
48589;DHT22;34369;51.174;6.738;2023-09-19T14:25:25;21.30;46.50
48589;DHT22;34369;51.174;6.738;2023-09-19T14:32:40;21.00;47.90
48589;DHT22;34369;51.174;6.738;2023-09-19T14:35:47;21.00;47.50
48589;DHT22;34369;51.174;6.738;2023-09-19T14:38:46;21.00;47.90
48589;DHT22;34369;51.174;6.738;2023-09-19T14:41:55;21.00;48.30
48589;DHT22;34369;51.174;6.738;2023-09-19T14:45:12;21.00;48.00
48589;DHT22;34369;51.174;6.738;2023-09-19T14:47:56;21.00;48.30
48589;DHT22;34369;51.174;6.738;2023-09-19T14:50:53;20.90;47.70
48589;DHT22;34369;51.174;6.738;2023-09-19T14:53:47;20.90;47.90
48589;DHT22;34369;51.174;6.738;2023-09-19T14:56:36;20.80;48.00
48589;DHT22;34369;51.174;6.738;2023-09-19T14:59:33;20.70;47.90
48589;DHT22;34369;51.174;6.738;2023-09-19T15:02:33;20.70;48.00
48589;DHT22;34369;51.174;6.738;2023-09-19T15:05:40;20.60;47.90
48589;DHT22;34369;51.174;6.738;2023-09-19T15:08:39;20.50;47.90
48589;DHT22;34369;51.174;6.738;2023-09-19T15:11:18;20.40;48.40
48589;DHT22;34369;51.174;6.738;2023-09-19T15:14:15;20.30;48.40
48589;DHT22;34369;51.174;6.738;2023-09-19T15:17:56;20.20;48.70
48589;DHT22;34369;51.174;6.738;2023-09-19T15:20:54;20.10;48.60
48589;DHT22;34369;51.174;6.738;2023-09-19T15:23:43;20.10;48.80
48589;DHT22;34369;51.174;6.738;2023-09-19T15:26:31;20.00;49.00
48589;DHT22;34369;51.174;6.738;2023-09-19T15:29:34;20.00;49.30
48589;DHT22;34369;51.174;6.738;2023-09-19T15:32:55;19.90;49.30
48589;DHT22;34369;51.174;6.738;2023-09-19T15:35:48;19.90;49.50
48589;DHT22;34369;51.174;6.738;2023-09-19T15:38:31;19.80;49.50
48589;DHT22;34369;51.174;6.738;2023-09-19T15:41:13;19.80;49.60
48589;DHT22;34369;51.174;6.738;2023-09-19T15:44:20;19.70;50.00
48589;DHT22;34369;51.174;6.738;2023-09-19T15:47:35;19.70;50.10
48589;DHT22;34369;51.174;6.738;2023-09-19T15:51:09;19.70;50.10
48589;DHT22;34369;51.174;6.738;2023-09-19T15:54:55;19.70;50.50
48589;DHT22;34369;51.174;6.738;2023-09-19T15:58:03;19.70;50.30
48589;DHT22;34369;51.174;6.738;2023-09-19T16:01:14;19.70;50.30
48589;DHT22;34369;51.174;6.738;2023-09-19T16:08:39;19.70;50.50
48589;DHT22;34369;51.174;6.738;2023-09-19T16:11:46;19.70;50.60
48589;DHT22;34369;51.174;6.738;2023-09-19T16:14:42;19.70;51.00
48589;DHT22;34369;51.174;6.738;2023-09-19T16:17:39;19.70;51.10
48589;DHT22;34369;51.174;6.738;2023-09-19T16:21:22;19.70;51.20
48589;DHT22;34369;51.174;6.738;2023-09-19T16:28:40;20.00;51.20
48589;DHT22;34369;51.174;6.738;2023-09-19T16:31:23;20.00;50.80
48589;DHT22;34369;51.174;6.738;2023-09-19T16:34:21;20.00;50.50
48589;DHT22;34369;51.174;6.738;2023-09-19T16:37:25;20.00;50.40
48589;DHT22;34369;51.174;6.738;2023-09-19T16:44:30;20.00;50.50
48589;DHT22;34369;51.174;6.738;2023-09-19T16:47:21;19.80;50.10
48589;DHT22;34369;51.174;6.738;2023-09-19T16:50:46;19.80;50.40
48589;DHT22;34369;51.174;6.738;2023-09-19T17:02:02;19.50;50.70
48589;DHT22;34369;51.174;6.738;2023-09-19T17:05:01;19.40;50.80
48589;DHT22;34369;51.174;6.738;2023-09-19T17:20:54;19.20;51.20
48589;DHT22;34369;51.174;6.738;2023-09-19T17:24:37;19.10;51.20
48589;DHT22;34369;51.174;6.738;2023-09-19T17:27:59;19.00;51.40
48589;DHT22;34369;51.174;6.738;2023-09-19T17:31:26;19.00;51.40
48589;DHT22;34369;51.174;6.738;2023-09-19T17:34:51;18.90;51.60
48589;DHT22;34369;51.174;6.738;2023-09-19T17:40:15;18.80;51.70
48589;DHT22;34369;51.174;6.738;2023-09-19T17:42:48;18.80;51.90
48589;DHT22;34369;51.174;6.738;2023-09-19T17:45:20;18.70;52.00
48589;DHT22;34369;51.174;6.738;2023-09-19T17:47:53;18.70;52.20
48589;DHT22;34369;51.174;6.738;2023-09-19T17:50:25;18.60;52.20
48589;DHT22;34369;51.174;6.738;2023-09-19T17:52:57;18.60;52.20
48589;DHT22;34369;51.174;6.738;2023-09-19T17:55:36;18.60;52.20
48589;DHT22;34369;51.174;6.738;2023-09-19T17:58:12;18.60;52.20
48589;DHT22;34369;51.174;6.738;2023-09-19T18:00:44;18.60;52.20
48589;DHT22;34369;51.174;6.738;2023-09-19T18:03:17;18.60;52.30
48589;DHT22;34369;51.174;6.738;2023-09-19T18:05:51;18.60;52.60
48589;DHT22;34369;51.174;6.738;2023-09-19T18:08:28;18.60;52.30
48589;DHT22;34369;51.174;6.738;2023-09-19T18:11:04;18.60;52.20
48589;DHT22;34369;51.174;6.738;2023-09-19T18:13:45;18.50;52.30
48589;DHT22;34369;51.174;6.738;2023-09-19T18:16:24;18.50;52.30
48589;DHT22;34369;51.174;6.738;2023-09-19T18:19:02;18.50;52.40
48589;DHT22;34369;51.174;6.738;2023-09-19T18:21:34;18.50;52.30
48589;DHT22;34369;51.174;6.738;2023-09-19T18:24:08;18.50;52.40
48589;DHT22;34369;51.174;6.738;2023-09-19T18:26:46;18.50;52.30
48589;DHT22;34369;51.174;6.738;2023-09-19T18:29:18;18.50;52.30
48589;DHT22;34369;51.174;6.738;2023-09-19T18:31:50;18.50;52.30
48589;DHT22;34369;51.174;6.738;2023-09-19T18:34:23;18.50;52.50
48589;DHT22;34369;51.174;6.738;2023-09-19T18:36:55;18.50;52.20
48589;DHT22;34369;51.174;6.738;2023-09-19T18:39:29;18.50;52.60
48589;DHT22;34369;51.174;6.738;2023-09-19T18:42:03;18.40;52.50
48589;DHT22;34369;51.174;6.738;2023-09-19T18:44:35;18.40;52.70
48589;DHT22;34369;51.174;6.738;2023-09-19T18:47:08;18.40;52.70
48589;DHT22;34369;51.174;6.738;2023-09-19T18:49:42;18.40;52.50